Time;durP1;ratioP1;P1;durP2;ratioP2;P2;SDS_P1;SDS_P2;PMS_P1;PMS_P2;Temp;Humidity;BMP_temperature;BMP_pressure;BME280_temperature;BME280_humidity;BME280_pressure;Samples;Min_cycle;Max_cycle;Signal;HPM_P1;HPM_P2
2022/07/01 00:02:25;;;;;;;24.10;15.10;;;19.60;99.90;;;18.71;100.00;100920.03;4991052;28;20430;-78
2022/07/01 00:04:51;;;;;;;22.92;15.10;;;19.60;99.90;;;18.61;100.00;100916.34;4995367;28;20593;-76
2022/07/01 00:07:17;;;;;;;24.50;16.52;;;19.60;99.90;;;18.65;100.00;100913.34;4962260;28;20557;-78
2022/07/01 00:09:43;;;;;;;23.98;16.80;;;19.50;99.90;;;18.72;100.00;100920.88;4981626;28;20075;-77
2022/07/01 00:12:09;;;;;;;25.55;17.33;;;19.50;99.90;;;18.58;100.00;100908.63;5001372;28;20475;-78
2022/07/01 00:14:36;;;;;;;21.92;14.73;;;19.50;99.90;;;18.66;100.00;100908.88;4981454;28;20029;-79
2022/07/01 00:17:01;;;;;;;28.63;16.20;;;19.60;99.90;;;18.71;100.00;100903.19;4975841;28;20053;-77
2022/07/01 00:19:27;;;;;;;26.27;16.55;;;19.50;99.90;;;18.69;100.00;100908.63;4989464;28;20055;-78
2022/07/01 00:21:53;;;;;;;;;;;19.50;99.90;;;18.63;100.00;100899.25;4991585;28;20370;-78
2022/07/01 00:24:19;;;;;;;27.70;16.33;;;19.50;99.90;;;18.55;100.00;100898.16;4947631;28;19920;-77
2022/07/01 00:26:45;;;;;;;27.23;17.50;;;19.50;99.90;;;18.57;100.00;100901.56;4983143;28;20041;-77
2022/07/01 00:29:11;;;;;;;29.95;16.98;;;19.50;99.90;;;18.58;100.00;100906.78;4988413;28;20167;-78
2022/07/01 00:31:39;;;;;;;;;;;19.50;99.90;;;18.54;100.00;100902.66;4971782;28;20038;-78
2022/07/01 00:34:05;;;;;;;24.48;18.00;;;19.40;99.90;;;18.53;100.00;100903.63;4984018;28;19905;-77
2022/07/01 00:36:31;;;;;;;25.92;19.55;;;19.50;99.90;;;18.51;100.00;100897.56;4975699;28;20792;-78
2022/07/01 00:38:58;;;;;;;28.27;18.95;;;19.50;99.90;;;18.57;100.00;100897.06;4990763;28;22483;-77
2022/07/01 00:41:24;;;;;;;29.13;18.92;;;19.50;99.90;;;18.59;100.00;100889.81;5004908;28;20036;-76
2022/07/01 00:43:50;;;;;;;26.23;18.33;;;19.50;99.90;;;18.57;100.00;100891.75;4996985;28;20054;-78
2022/07/01 00:46:16;;;;;;;;;;;19.50;99.90;;;18.56;100.00;100891.88;4975774;28;20219;-78
2022/07/01 00:48:43;;;;;;;36.90;20.55;;;19.50;99.90;;;18.60;100.00;100894.19;4967241;28;19914;-78
2022/07/01 00:51:08;;;;;;;30.05;19.98;;;19.50;99.90;;;18.63;100.00;100888.59;4990058;28;20022;-77
2022/07/01 00:53:35;;;;;;;45.78;24.08;;;19.50;99.90;;;18.54;100.00;100888.47;4979147;28;20030;-77
2022/07/01 00:56:01;;;;;;;39.90;22.73;;;19.50;99.90;;;18.51;100.00;100889.56;4964461;28;20035;-78
2022/07/01 00:58:28;;;;;;;109.68;24.73;;;19.40;99.90;;;18.40;100.00;100897.53;4975069;28;20498;-77
2022/07/01 01:00:56;;;;;;;93.88;26.73;;;19.30;99.90;;;18.41;100.00;100896.56;4955668;28;20032;-76
2022/07/01 01:03:22;;;;;;;41.25;24.60;;;19.40;99.90;;;18.48;100.00;100899.63;4978121;28;20052;-78
2022/07/01 01:05:50;;;;;;;249.40;28.23;;;19.40;99.90;;;18.46;100.00;100902.38;4989108;28;20053;-77
2022/07/01 01:08:16;;;;;;;74.05;26.65;;;19.30;99.90;;;18.43;100.00;100892.81;4983423;28;20030;-77
2022/07/01 01:10:43;;;;;;;56.38;25.88;;;19.30;99.90;;;18.37;100.00;100890.63;4973736;28;20041;-77
2022/07/01 01:13:09;;;;;;;74.60;28.40;;;19.30;99.90;;;18.44;100.00;100901.66;4987549;28;20030;-77
2022/07/01 01:15:35;;;;;;;170.98;34.42;;;19.30;99.90;;;18.39;100.00;100890.50;4967693;28;20037;-78
2022/07/01 01:18:02;;;;;;;104.70;28.92;;;19.30;99.90;;;18.45;100.00;100887.38;4968930;28;20135;-77
2022/07/01 01:20:34;;;;;;;140.40;27.42;;;19.20;99.90;;;18.20;100.00;100883.91;4971355;28;20031;-78
2022/07/01 01:23:00;;;;;;;337.27;30.40;;;19.20;99.90;;;18.19;100.00;100886.72;4994176;28;20033;-78
2022/07/01 01:25:26;;;;;;;198.30;26.25;;;19.20;99.90;;;18.17;100.00;100883.31;4966361;28;20044;-77
2022/07/01 01:27:51;;;;;;;139.57;27.27;;;19.20;99.90;;;18.25;100.00;100880.91;4986415;28;22520;-78
2022/07/01 01:30:20;;;;;;;55.45;25.25;;;19.10;99.90;;;18.20;100.00;100878.59;4951965;28;20022;-77
2022/07/01 01:32:45;;;;;;;67.30;26.00;;;19.10;99.90;;;18.29;100.00;100873.50;4992329;28;20044;-77
2022/07/01 01:35:13;;;;;;;156.38;30.88;;;19.20;99.90;;;18.30;100.00;100876.06;4978488;28;20105;-78
2022/07/01 01:37:39;;;;;;;249.98;32.53;;;19.20;99.90;;;18.34;100.00;100877.53;4992632;28;20033;-78
2022/07/01 01:40:06;;;;;;;282.13;30.50;;;19.20;99.90;;;18.34;100.00;100874.03;4993031;28;20046;-77
2022/07/01 01:42:35;;;;;;;242.57;32.85;;;19.20;99.90;;;18.32;100.00;100866.16;5002641;28;20058;-77
2022/07/01 01:45:02;;;;;;;475.17;35.53;;;19.20;99.90;;;18.35;100.00;100859.72;4993650;28;20029;-78
2022/07/01 01:47:28;;;;;;;231.35;32.83;;;19.20;99.90;;;18.35;100.00;100862.38;4982541;28;20044;-78
2022/07/01 01:49:53;;;;;;;359.75;36.70;;;19.20;99.90;;;18.30;100.00;100856.56;4996148;28;20037;-77
2022/07/01 01:52:19;;;;;;;197.52;33.03;;;19.20;99.90;;;18.27;100.00;100860.31;4992172;28;20482;-78
2022/07/01 01:54:46;;;;;;;;;;;19.20;99.90;;;18.20;100.00;100859.91;4973887;28;20114;-77
2022/07/01 01:57:12;;;;;;;461.60;34.78;;;19.10;99.90;;;18.10;100.00;100858.94;4994143;28;19936;-78
2022/07/01 01:59:38;;;;;;;245.23;29.98;;;19.10;99.90;;;18.14;100.00;100855.09;4999460;28;20388;-77
2022/07/01 02:02:05;;;;;;;321.15;29.38;;;19.00;99.90;;;17.99;100.00;100862.44;4990880;28;20131;-78
2022/07/01 02:04:31;;;;;;;300.98;29.10;;;19.00;99.90;;;18.00;100.00;100861.44;4968210;28;20049;-78
2022/07/01 02:06:57;;;;;;;313.30;31.95;;;19.00;99.90;;;18.01;100.00;100856.97;4968161;28;20092;-77
2022/07/01 02:09:23;;;;;;;261.70;28.30;;;18.90;99.90;;;18.06;100.00;100846.81;4964728;28;20026;-76
2022/07/01 02:11:49;;;;;;;175.75;23.92;;;18.80;99.90;;;17.83;100.00;100846.72;4984587;28;20065;-78
2022/07/01 02:14:15;;;;;;;166.65;24.98;;;18.80;99.90;;;17.92;100.00;100850.50;5001951;28;20113;-78
2022/07/01 02:16:41;;;;;;;280.42;26.35;;;18.90;99.90;;;17.89;100.00;100850.75;4987374;28;20490;-77
2022/07/01 02:19:06;;;;;;;204.00;26.77;;;18.80;99.90;;;17.93;100.00;100846.06;4962564;28;20038;-78
2022/07/01 02:21:32;;;;;;;;;;;18.80;99.90;;;17.75;100.00;100843.78;4987348;28;20030;-77
2022/07/01 02:23:58;;;;;;;206.82;25.25;;;18.70;99.90;;;17.81;100.00;100848.63;4999618;28;19909;-77
2022/07/01 02:26:24;;;;;;;342.10;31.50;;;18.70;99.90;;;17.72;100.00;100838.69;5000099;28;20049;-76
2022/07/01 02:28:50;;;;;;;249.52;30.17;;;18.70;99.90;;;17.78;100.00;100845.38;4998687;28;20109;-77
2022/07/01 02:31:16;;;;;;;236.05;26.75;;;18.70;99.90;;;17.60;100.00;100840.44;4991789;28;20040;-78
2022/07/01 02:33:42;;;;;;;185.38;24.50;;;18.60;99.90;;;17.52;100.00;100842.00;4970464;28;20512;-77
2022/07/01 02:36:07;;;;;;;100.78;21.25;;;18.60;99.90;;;17.60;100.00;100842.25;4990919;28;20092;-77
2022/07/01 02:38:35;;;;;;;57.80;21.00;;;18.60;99.90;;;17.68;100.00;100849.69;4995725;28;20042;-77
2022/07/01 02:41:01;;;;;;;327.00;37.83;;;18.60;99.90;;;17.69;100.00;100854.03;4998135;28;20105;-78
2022/07/01 02:43:27;;;;;;;324.92;28.27;;;18.60;99.90;;;17.74;100.00;100860.72;4996540;28;20025;-77
2022/07/01 02:45:53;;;;;;;261.63;33.42;;;18.70;99.90;;;17.79;100.00;100855.88;5005596;28;20042;-77
2022/07/01 02:48:19;;;;;;;142.15;25.08;;;18.60;99.90;;;17.82;100.00;100852.19;5015529;28;20041;-78
2022/07/01 02:50:44;;;;;;;295.88;31.00;;;18.70;99.90;;;17.81;100.00;100853.13;4973013;28;20037;-78
2022/07/01 02:53:10;;;;;;;230.63;29.00;;;18.70;99.90;;;17.78;100.00;100848.88;4994167;28;20026;-77
2022/07/01 02:55:36;;;;;;;558.10;46.58;;;18.70;99.90;;;17.77;100.00;100852.47;4974315;28;20037;-77
2022/07/01 02:58:04;;;;;;;;;;;18.70;99.90;;;17.57;100.00;100850.47;4989597;28;20479;-78
2022/07/01 03:00:30;;;;;;;239.13;29.33;;;18.60;99.90;;;17.62;100.00;100842.97;4976992;28;19905;-78
2022/07/01 03:02:56;;;;;;;403.90;36.17;;;18.60;99.90;;;17.66;100.00;100839.13;4975995;28;20034;-78
2022/07/01 03:05:21;;;;;;;;;;;18.60;99.90;;;17.70;100.00;100829.09;4991130;28;20045;-77
2022/07/01 03:07:47;;;;;;;336.55;39.88;;;18.60;99.90;;;17.62;100.00;100824.34;4985615;28;19906;-76
2022/07/01 03:10:14;;;;;;;106.40;27.63;;;18.60;99.90;;;17.72;100.00;100830.69;4980769;28;20014;-76
2022/07/01 03:12:40;;;;;;;170.95;29.23;;;18.60;99.90;;;17.75;100.00;100835.81;4957228;28;20026;-76
2022/07/01 03:15:13;;;;;;;260.75;32.22;;;18.70;99.90;;;17.77;100.00;100833.84;4964574;28;20036;-77
2022/07/01 03:17:46;;;;;;;181.80;29.60;;;18.60;99.90;;;17.74;100.00;100841.22;4999509;28;20054;-77
2022/07/01 03:20:16;;;;;;;209.85;34.17;;;18.70;99.90;;;17.72;100.00;100854.66;4974536;28;20128;-77
2022/07/01 03:22:43;;;;;;;225.50;33.97;;;18.60;99.90;;;17.66;100.00;100849.78;4988104;28;20030;-76
2022/07/01 03:25:10;;;;;;;218.23;35.85;;;18.60;99.90;;;17.73;100.00;100855.50;4979926;28;20091;-78
2022/07/01 03:27:36;;;;;;;206.55;34.63;;;18.70;99.90;;;17.73;100.00;100853.72;4994678;28;20041;-77
2022/07/01 03:30:06;;;;;;;173.10;31.55;;;18.60;99.90;;;17.71;100.00;100852.97;4977290;28;20394;-77
2022/07/01 03:32:33;;;;;;;242.20;36.13;;;18.70;99.90;;;17.77;100.00;100857.81;4990588;28;20045;-78
2022/07/01 03:34:59;;;;;;;186.70;35.80;;;18.70;99.90;;;17.85;100.00;100861.78;4991542;28;20687;-76
2022/07/01 03:37:25;;;;;;;395.65;49.22;;;18.70;99.90;;;17.92;100.00;100865.66;4989746;28;20053;-77
2022/07/01 03:39:53;;;;;;;305.80;44.63;;;18.80;99.90;;;17.90;100.00;100870.25;4998471;28;20068;-77
2022/07/01 03:42:19;;;;;;;225.57;35.63;;;18.80;99.90;;;17.82;100.00;100870.84;4947091;28;20112;-77
2022/07/01 03:44:45;;;;;;;244.45;41.08;;;18.70;99.90;;;17.70;100.00;100872.56;4976942;28;20029;-78
2022/07/01 03:47:11;;;;;;;293.75;39.90;;;18.70;99.90;;;17.65;100.00;100869.41;4999099;28;20845;-77
2022/07/01 03:49:37;;;;;;;378.80;44.63;;;18.60;99.90;;;17.61;100.00;100874.09;4999710;28;20041;-77
2022/07/01 03:52:04;;;;;;;428.80;48.55;;;18.60;99.90;;;17.65;100.00;100869.41;4983615;28;20030;-76
2022/07/01 03:54:32;;;;;;;333.58;47.10;;;18.60;99.90;;;17.70;100.00;100869.06;4997305;28;20068;-78
2022/07/01 03:57:06;;;;;;;220.77;40.92;;;18.70;99.90;;;17.69;100.00;100862.88;4968237;28;20674;-77
2022/07/01 03:59:37;;;;;;;243.32;41.55;;;18.70;99.90;;;17.77;100.00;100868.47;5004858;28;20040;-77
2022/07/01 04:02:04;;;;;;;359.80;41.70;;;18.70;99.90;;;17.71;100.00;100870.72;4970800;28;20022;-78
2022/07/01 04:04:30;;;;;;;310.65;48.42;;;18.70;99.90;;;17.73;100.00;100867.03;4980804;28;20097;-77
2022/07/01 04:07:02;;;;;;;326.55;45.53;;;18.70;99.90;;;17.83;100.00;100867.19;4988355;28;20120;-77
2022/07/01 04:09:30;;;;;;;323.92;47.58;;;18.70;99.90;;;17.81;100.00;100869.94;4982329;28;20512;-77
2022/07/01 04:11:57;;;;;;;351.95;47.05;;;18.80;99.90;;;17.83;100.00;100867.19;4958967;28;20036;-77
2022/07/01 04:14:26;;;;;;;298.50;43.45;;;18.80;99.90;;;17.97;100.00;100868.81;4989613;28;20041;-77
2022/07/01 04:16:53;;;;;;;379.38;45.03;;;18.80;99.90;;;17.87;100.00;100858.03;4981668;28;20406;-76
2022/07/01 04:19:20;;;;;;;407.75;49.55;;;18.80;99.90;;;17.88;100.00;100858.88;4983787;28;20030;-77
2022/07/01 04:24:34;;;;;;;202.70;43.50;;;18.90;99.90;;;17.94;100.00;100869.91;4996985;28;20087;-77
2022/07/01 04:27:01;;;;;;;358.48;46.38;;;18.90;99.90;;;17.95;100.00;100865.44;4998268;28;20045;-77
2022/07/01 04:29:29;;;;;;;189.05;45.35;;;18.90;99.90;;;18.05;100.00;100879.75;4990934;28;20099;-76
2022/07/01 04:31:56;;;;;;;267.17;47.90;;;19.00;99.90;;;18.14;100.00;100881.75;5000921;28;20033;-76
2022/07/01 04:34:22;;;;;;;192.93;50.15;;;19.00;99.90;;;18.30;100.00;100884.06;4990357;28;20028;-77
2022/07/01 04:36:48;;;;;;;172.75;47.83;;;19.10;99.90;;;18.29;100.00;100890.34;4991825;28;20412;-76
2022/07/01 04:39:13;;;;;;;118.80;46.10;;;19.20;99.90;;;18.36;100.00;100880.94;4987026;28;20042;-77
2022/07/01 04:44:24;;;;;;;133.27;45.65;;;19.20;99.90;;;18.34;100.00;100874.88;4992101;28;20036;-77
2022/07/01 04:46:50;;;;;;;159.45;50.67;;;19.30;99.90;;;18.42;100.00;100875.13;4981698;28;20489;-77
2022/07/01 04:49:15;;;;;;;;;;;19.30;99.90;;;18.50;100.00;100882.53;4979959;28;20030;-77
2022/07/01 04:51:41;;;;;;;204.10;48.55;;;19.40;99.90;;;18.43;100.00;100884.81;4988357;28;19914;-77
2022/07/01 04:54:08;;;;;;;185.15;48.58;;;19.40;99.90;;;18.55;100.00;100877.72;4984199;28;20015;-77
2022/07/01 04:56:36;;;;;;;135.27;47.22;;;19.50;99.90;;;18.57;100.00;100875.75;4997110;28;20055;-76
2022/07/01 04:59:03;;;;;;;121.85;44.75;;;19.50;99.90;;;18.60;100.00;100878.19;4980661;28;20049;-76
2022/07/01 05:01:30;;;;;;;131.88;45.53;;;19.50;99.90;;;18.56;100.00;100874.06;4980233;28;20323;-77
2022/07/01 05:03:57;;;;;;;105.05;45.08;;;19.50;99.90;;;18.71;100.00;100873.84;4966193;28;20109;-77
2022/07/01 05:06:23;;;;;;;99.95;42.47;;;19.60;99.90;;;18.74;100.00;100879.75;5000358;28;20509;-77
2022/07/01 05:08:48;;;;;;;117.72;44.30;;;19.60;99.90;;;18.82;100.00;100877.38;4988607;28;20452;-77
2022/07/01 05:11:14;;;;;;;136.93;44.95;;;19.60;99.90;;;18.69;100.00;100895.28;4995558;28;20037;-77
2022/07/01 05:13:40;;;;;;;;;;;19.60;99.90;;;18.64;100.00;100895.66;4981259;28;24186;-78
2022/07/01 05:16:08;;;;;;;89.25;37.03;;;19.60;99.90;;;18.67;100.00;100897.22;4961601;28;19971;-78
2022/07/01 05:24:04;;;;;;;84.95;36.33;;;19.70;99.90;;;18.91;100.00;100902.47;4978195;28;20041;-76
2022/07/01 05:26:30;;;;;;;70.82;32.85;;;19.80;99.90;;;19.08;100.00;100902.97;4990199;28;20116;-78
2022/07/01 05:28:56;;;;;;;65.90;31.55;;;19.90;99.90;;;19.23;100.00;100907.09;4989243;28;20021;-77
2022/07/01 05:31:24;;;;;;;67.95;32.20;;;20.00;99.90;;;19.40;100.00;100913.75;4990193;28;20022;-77
2022/07/01 05:33:50;;;;;;;62.58;30.10;;;20.10;99.90;;;19.45;100.00;100914.19;4952414;28;20025;-77
2022/07/01 05:36:16;;;;;;;54.65;27.98;;;20.20;99.90;;;19.41;100.00;100905.56;4978880;28;20029;-77
2022/07/01 05:38:42;;;;;;;57.08;28.30;;;20.20;99.90;;;19.44;100.00;100909.84;4999986;28;20052;-77
2022/07/01 05:41:08;;;;;;;;;;;20.20;99.90;;;19.60;100.00;100904.94;4972487;28;20565;-76
2022/07/01 05:43:34;;;;;;;49.22;24.42;;;20.40;99.90;;;19.66;100.00;100908.94;4967205;28;20352;-77
2022/07/01 05:46:01;;;;;;;43.22;23.63;;;20.40;99.90;;;19.72;100.00;100910.28;4996102;28;20033;-76
2022/07/01 05:48:27;;;;;;;44.65;23.17;;;20.50;99.90;;;19.93;100.00;100915.69;4990051;28;20022;-77
2022/07/01 05:50:53;;;;;;;46.70;23.20;;;20.60;99.90;;;19.94;100.00;100917.38;4982314;28;20029;-77
2022/07/01 05:53:20;;;;;;;42.70;22.27;;;20.70;99.90;;;20.00;100.00;100922.19;4964881;28;20719;-77
2022/07/01 05:55:46;;;;;;;40.25;21.85;;;20.80;99.90;;;20.22;100.00;100927.47;4971374;28;20034;-77
2022/07/01 05:58:13;;;;;;;34.28;19.10;;;20.90;99.90;;;20.33;100.00;100934.56;4981713;28;20056;-77
2022/07/01 06:00:43;;;;;;;30.88;18.25;;;21.00;99.90;;;20.47;100.00;100931.59;4979357;28;20048;-77
2022/07/01 06:03:14;;;;;;;30.23;17.15;;;21.00;99.90;;;20.58;100.00;100933.38;4979007;28;20559;-77
2022/07/01 06:05:41;;;;;;;25.48;16.10;;;21.20;99.90;;;20.69;100.00;100943.13;5001387;28;20034;-77
2022/07/01 06:08:07;;;;;;;22.48;15.40;;;21.40;99.90;;;20.98;100.00;100948.66;4961247;28;20072;-76
2022/07/01 06:10:35;;;;;;;21.55;14.73;;;21.50;99.90;;;20.90;100.00;100945.78;4979778;28;20021;-77
2022/07/01 06:13:02;;;;;;;25.02;15.35;;;21.50;99.90;;;20.90;100.00;100945.78;4975590;28;20527;-78
2022/07/01 06:15:28;;;;;;;26.45;15.77;;;21.50;99.90;;;20.69;100.00;100938.66;4986348;28;20044;-78
2022/07/01 06:17:55;;;;;;;26.30;15.70;;;21.40;99.90;;;20.52;100.00;100928.50;5004238;28;20502;-78
2022/07/01 06:20:20;;;;;;;26.73;15.75;;;21.40;99.90;;;20.66;100.00;100930.88;4981324;28;20032;-76
2022/07/01 06:22:46;;;;;;;25.75;15.35;;;21.30;99.90;;;20.50;100.00;100922.44;4983015;28;20029;-77
2022/07/01 06:25:12;;;;;;;;;;;21.40;99.90;;;20.30;100.00;100926.78;4979737;28;20029;-78
2022/07/01 06:27:42;;;;;;;25.02;15.55;;;21.20;99.90;;;20.37;100.00;100919.13;4984058;28;20380;-80
2022/07/01 06:30:10;;;;;;;23.38;14.30;;;21.30;99.90;;;20.48;100.00;100911.88;4996908;28;20489;-76
2022/07/01 06:32:37;;;;;;;25.38;15.93;;;21.30;99.90;;;20.56;100.00;100910.34;4988405;28;20472;-77
2022/07/01 06:35:04;;;;;;;22.85;15.20;;;21.40;99.90;;;20.82;100.00;100911.69;4973736;28;20513;-78
2022/07/01 06:37:33;;;;;;;27.92;16.85;;;21.40;99.90;;;20.65;100.00;100918.50;4986150;28;20034;-77
2022/07/01 06:40:00;;;;;;;25.23;15.80;;;21.50;99.90;;;20.79;100.00;100911.09;4983228;28;20053;-77
2022/07/01 06:42:26;;;;;;;27.83;16.02;;;21.60;99.90;;;21.06;100.00;100911.34;4999801;28;20034;-77
2022/07/01 06:44:52;;;;;;;24.60;15.23;;;21.60;99.90;;;21.07;100.00;100905.00;4969136;28;20189;-77
2022/07/01 06:47:18;;;;;;;23.35;14.95;;;21.90;99.90;;;21.83;100.00;100906.31;4995012;28;20083;-77
2022/07/01 06:49:43;;;;;;;21.60;14.70;;;22.30;99.90;;;21.90;100.00;100924.41;4975581;28;20678;-77
2022/07/01 06:52:09;;;;;;;25.00;15.13;;;22.50;99.90;;;22.30;100.00;100923.41;4990396;28;20042;-78
2022/07/01 06:54:39;;;;;;;27.50;15.07;;;22.90;99.90;;;23.08;100.00;100928.63;5003173;28;20033;-77
2022/07/01 06:57:06;;;;;;;22.45;14.65;;;23.20;99.90;;;23.32;100.00;100929.91;4982731;28;20046;-78
2022/07/01 06:59:32;;;;;;;19.63;13.57;;;23.60;99.90;;;23.64;98.34;100929.44;4997724;28;20049;-77
2022/07/01 07:01:58;;;;;;;25.73;15.52;;;23.80;99.90;;;23.66;96.10;100923.91;4984754;28;20120;-77
2022/07/01 07:04:24;;;;;;;24.52;15.57;;;24.00;99.90;;;23.51;96.77;100921.75;4990517;28;20025;-78
2022/07/01 07:06:49;;;;;;;19.48;14.40;;;24.00;99.90;;;23.51;97.63;100926.28;4990400;28;20029;-78
2022/07/01 07:09:15;;;;;;;20.85;15.10;;;24.00;99.90;;;23.38;98.34;100926.63;4977866;28;20453;-78
2022/07/01 07:11:41;;;;;;;23.98;15.35;;;23.80;99.90;;;23.22;99.66;100921.91;4970360;28;20087;-79
2022/07/01 07:14:07;;;;;;;28.30;15.77;;;23.90;99.90;;;23.48;99.49;100923.91;4989887;28;20431;-78
2022/07/01 07:16:33;;;;;;;20.27;15.07;;;23.90;99.90;;;23.91;96.56;100920.50;4998447;28;20046;-77
2022/07/01 07:18:58;;;;;;;21.13;16.05;;;24.70;99.90;;;25.53;87.99;100917.34;4999731;28;20405;-77
2022/07/01 07:21:24;;;;;;;20.73;15.68;;;25.50;99.90;;;26.49;82.66;100926.69;4982702;28;20045;-76
2022/07/01 07:23:50;;;;;;;23.67;15.80;;;26.20;99.90;;;26.57;80.03;100929.44;4981222;28;20038;-76
2022/07/01 07:26:16;;;;;;;20.83;15.15;;;26.40;99.90;;;26.11;81.00;100940.72;4999682;28;20021;-78
2022/07/01 07:28:42;;;;;;;21.25;15.38;;;26.50;99.90;;;26.62;79.88;100945.94;4984654;28;20022;-77
2022/07/01 07:31:08;;;;;;;19.25;15.10;;;26.70;99.90;;;26.79;78.26;100953.00;4996987;28;20048;-77
2022/07/01 07:33:34;;;;;;;23.00;17.85;;;27.20;99.90;;;27.26;75.52;100956.78;4993006;28;20050;-78
2022/07/01 07:35:59;;;;;;;21.92;18.30;;;27.60;99.90;;;27.81;72.80;100968.50;4992493;28;20514;-77
2022/07/01 07:38:25;;;;;;;24.23;18.40;;;28.20;99.90;;;28.97;69.24;100963.84;4976051;28;20038;-78
2022/07/01 07:40:51;;;;;;;25.00;20.77;;;28.80;99.90;;;28.76;67.91;100980.81;4988874;28;20056;-78
2022/07/01 07:43:17;;;;;;;25.20;20.70;;;28.90;99.90;;;29.12;67.79;100972.00;5017527;28;20026;-78
2022/07/01 07:45:43;;;;;;;31.65;22.30;;;29.20;99.90;;;29.21;66.79;100979.00;4998327;28;20041;-77
2022/07/01 07:48:11;;;;;;;31.30;21.33;;;29.30;99.90;;;29.09;66.88;100977.75;4998397;28;20113;-77
2022/07/01 07:50:37;;;;;;;29.40;19.67;;;29.20;99.90;;;28.79;68.87;100967.75;5013330;28;20034;-78
2022/07/01 07:53:02;;;;;;;24.17;21.17;;;28.70;99.90;;;27.99;71.07;100958.28;4986442;28;20062;-78
2022/07/01 07:55:31;;;;;;;24.23;19.15;;;28.50;99.90;;;28.38;70.11;100970.81;4980592;28;20087;-79
2022/07/01 07:57:57;;;;;;;24.48;19.13;;;28.90;99.90;;;29.70;67.25;100978.41;5004659;28;20041;-77
2022/07/01 08:00:23;;;;;;;24.88;19.15;;;29.70;99.90;;;30.58;62.76;100978.22;4980028;28;20108;-77
2022/07/01 08:02:48;;;;;;;23.60;18.70;;;30.00;99.90;;;30.36;63.96;100975.53;4967141;28;20056;-78
2022/07/01 08:05:14;;;;;;;21.52;17.27;;;30.60;99.90;;;31.36;61.63;100981.69;4991246;28;20037;-77
2022/07/01 08:07:42;;;;;;;22.38;16.92;;;31.30;99.90;;;32.50;57.90;100990.97;4955354;28;20038;-78
2022/07/01 08:10:12;;;;;;;22.33;16.55;;;32.10;99.90;;;33.14;56.21;101000.41;4983405;28;20045;-78
2022/07/01 08:12:38;;;;;;;22.67;17.23;;;32.70;99.90;;;33.47;54.78;101002.16;4981638;28;20025;-77
2022/07/01 08:15:05;;;;;;;25.58;18.55;;;33.00;99.90;;;33.47;54.18;100993.97;4970462;28;20485;-77
2022/07/01 08:17:31;;;;;;;28.02;19.75;;;33.20;99.90;;;33.62;53.57;101004.66;4991237;28;20044;-76
2022/07/01 08:19:57;;;;;;;26.38;18.85;;;33.20;99.90;;;33.09;53.78;101003.78;4993289;28;20025;-77
2022/07/01 08:22:23;;;;;;;22.35;18.08;;;33.00;99.90;;;33.06;54.89;100997.88;5000370;28;20041;-78
2022/07/01 08:24:49;;;;;;;24.20;19.17;;;33.00;99.90;;;33.20;54.20;100999.53;4996986;28;20481;-78
2022/07/01 08:27:15;;;;;;;26.55;18.25;;;33.00;99.90;;;33.15;54.01;101007.50;4990986;28;20100;-77
2022/07/01 08:29:41;;;;;;;22.35;18.23;;;32.90;99.90;;;32.59;55.15;101013.44;4998192;28;20554;-78
2022/07/01 08:32:08;;;;;;;25.73;19.52;;;32.50;99.90;;;31.82;56.96;101010.16;4981133;28;20443;-78
2022/07/01 08:34:35;;;;;;;23.38;18.92;;;31.90;99.90;;;30.91;58.99;101000.25;4996268;28;20030;-78
2022/07/01 08:37:03;;;;;;;27.70;19.23;;;31.40;99.90;;;30.53;61.24;101005.16;4995426;28;20026;-77
2022/07/01 08:39:28;;;;;;;28.08;20.02;;;31.00;99.90;;;30.40;61.08;101006.72;4988809;28;20045;-78
2022/07/01 08:41:55;;;;;;;31.45;23.30;;;30.70;99.90;;;30.10;62.25;101008.69;4998121;28;20026;-76
2022/07/01 08:44:21;;;;;;;35.13;24.17;;;30.50;99.90;;;29.72;63.00;101010.75;4976812;28;20112;-76
2022/07/01 08:46:47;;;;;;;32.55;23.75;;;30.20;99.90;;;29.53;64.21;101006.75;4965644;28;20037;-77
2022/07/01 08:49:13;;;;;;;34.25;24.73;;;30.00;99.90;;;29.58;65.11;100998.88;4971242;28;20508;-76
2022/07/01 08:51:41;;;;;;;39.38;26.15;;;30.00;99.90;;;29.78;65.92;101001.88;4970778;28;21179;-76
2022/07/01 08:54:07;;;;;;;39.42;25.58;;;30.10;99.90;;;30.02;64.71;101006.97;4994658;28;20037;-78
2022/07/01 08:56:42;;;;;;;45.88;30.00;;;30.20;99.90;;;29.99;64.72;100999.19;4985387;28;20026;-77
2022/07/01 08:59:25;;;;;;;45.50;29.95;;;30.30;99.90;;;29.85;64.39;100997.38;4980551;28;20041;-77
2022/07/01 09:02:05;;;;;;;46.35;29.25;;;30.20;99.90;;;29.63;63.67;100991.88;4986745;28;20399;-77
2022/07/01 09:04:32;;;;;;;52.70;32.40;;;29.80;99.90;;;28.91;66.89;100986.28;4991265;28;20034;-77
2022/07/01 09:07:30;;;;;;;50.05;32.70;;;29.50;99.90;;;28.66;68.18;100975.69;4981831;28;20037;-76
2022/07/01 09:10:17;;;;;;;50.83;32.15;;;29.30;99.90;;;28.46;67.74;100974.47;4996398;28;20018;-78
2022/07/01 09:12:47;;;;;;;57.30;34.25;;;29.00;99.90;;;28.40;68.34;100967.91;4972896;28;20084;-77
2022/07/01 09:15:31;;;;;;;65.25;37.65;;;28.80;99.90;;;28.17;70.40;100974.19;4989303;28;20030;-77
2022/07/01 09:18:16;;;;;;;78.20;44.65;;;28.70;99.90;;;28.26;69.10;100969.56;4981513;28;20053;-77
2022/07/01 09:20:49;;;;;;;84.13;45.30;;;28.80;99.90;;;28.38;69.01;100969.97;4980281;28;20603;-76
2022/07/01 09:23:18;;;;;;;75.03;44.28;;;28.80;99.90;;;28.53;68.86;100970.03;4977106;28;20029;-77
2022/07/01 09:25:53;;;;;;;80.18;43.50;;;28.90;99.90;;;28.77;68.78;100972.53;4989148;28;20079;-76
2022/07/01 09:28:28;;;;;;;79.30;42.33;;;29.10;99.90;;;29.12;69.21;100966.59;5000297;28;20398;-76
2022/07/01 09:30:57;;;;;;;76.80;42.88;;;29.40;99.90;;;29.03;67.90;100977.50;4980613;28;20030;-76
2022/07/01 09:33:28;;;;;;;80.63;43.03;;;29.40;99.90;;;28.94;67.50;100975.03;4999263;28;20037;-76
2022/07/01 09:36:01;;;;;;;83.05;43.38;;;29.20;99.90;;;28.67;67.58;100968.41;4998271;28;20113;-76
2022/07/01 09:38:26;;;;;;;82.32;43.17;;;29.10;99.90;;;28.73;69.51;100968.50;5000162;28;20041;-76
2022/07/01 09:40:58;;;;;;;81.28;42.15;;;29.10;99.90;;;28.76;68.53;100959.97;4986237;28;20034;-76
2022/07/01 09:43:33;;;;;;;85.05;43.33;;;29.10;99.90;;;28.99;67.69;100967.22;4992475;28;20051;-76
2022/07/01 09:46:27;;;;;;;75.23;42.07;;;29.40;99.90;;;29.49;66.19;100983.75;4993187;28;20108;-76
2022/07/01 09:48:56;;;;;;;75.13;38.88;;;29.60;99.90;;;29.68;64.35;100982.28;4998652;28;20045;-77
2022/07/01 09:51:22;;;;;;;78.18;38.97;;;29.90;99.90;;;29.93;64.37;100980.09;4999473;28;20026;-75
2022/07/01 09:53:51;;;;;;;73.13;39.40;;;30.00;99.90;;;30.05;64.69;100978.56;4966107;28;20074;-77
2022/07/01 09:56:26;;;;;;;80.30;41.25;;;30.10;99.90;;;29.84;64.07;100991.09;4994992;28;20100;-76
2022/07/01 09:58:54;;;;;;;74.60;37.05;;;29.90;99.90;;;29.09;66.00;100984.06;4993036;28;20044;-77
2022/07/01 10:01:22;;;;;;;78.32;39.90;;;29.40;99.90;;;28.66;68.75;100983.81;4995530;28;20488;-75
2022/07/01 10:03:55;;;;;;;74.43;38.08;;;29.00;99.90;;;27.96;70.89;100977.56;4995376;28;20067;-76
2022/07/01 10:07:16;;;;;;;85.38;40.20;;;28.50;99.90;;;27.36;73.35;100976.31;4983284;28;20062;-76
2022/07/01 10:10:01;;;;;;;85.30;41.28;;;28.10;99.90;;;27.25;75.79;100976.72;4996114;28;20050;-76